Home > Products > Valid Products > MTR

000
SAUS44 KMRX 152358 COR
MTRGDP
METAR KGDP 152351Z AUTO 07016KT 9SM -RA OVC100 18/17 A3026 RMK AO2
RAE27B47 SLP192 P0000 60000 T01780167 10211 20178 58001





000
SAUS44 KMRX 152258 COR
MTRGDP
METAR KGDP 152251Z AUTO 08012KT 9SM -RA FEW070 FEW090 OVC110 18/16
A3026 RMK AO2 RAE25B48 SLP192 P0000 T01830161





000
SAUS44 KMRX 150158 COR
MTRGDP
METAR KGDP 150151Z AUTO 07019KT 1/4SM -RA FG VV001 13/13 A3025 RMK
AO2 RAB12 SLP192 P0000 T01330133





000
SAUS44 KMRX 142207 COR
MTRGDP
SPECI KGDP 142200Z AUTO 08014KT 9SM BKN006 BKN023 BKN090 17/14 A3025
RMK AO2 CIG 004V009 T01670139





000
SAUS44 KMRX 141258 COR
MTRGDP
METAR KGDP 141251Z AUTO 17008KT 10SM -RA SCT030 BKN037 OVC090 15/12
A3029 RMK AO2 RAB46 SLP210 P0000 T01500122





000
SAUS44 KMRX 140351 COR
MTRGDP
SPECI KGDP 140344Z AUTO 06021KT 1 3/4SM BR FEW001 OVC080 11/11 A3028
RMK AO2 PK WND 06027/0316 T01110106





000
SAUS44 KMRX 132342 COR
MTRGDP
SPECI KGDP 132335Z AUTO 06025KT 8SM SCT004 BKN037 OVC085 11/10 A3026
RMK AO2 PK WND 06029/2332 T01060100





000
SAUS44 KMRX 132047 COR
MTRGDP
SPECI KGDP 132040Z AUTO 05023KT 3/4SM BR VV002 09/09 A3029 RMK AO2
PK WND 05026/2034 RAE13 P0000 T00940094





000
SAUS44 KMRX 131558 COR
MTRGDP
METAR KGDP 131551Z AUTO 06023KT M1/4SM -RA VV002 08/ A3035 RMK AO2
PK WND 05033/1516 SLP254 P0000 T0078 $





000
SAUS44 KMRX 131458 COR
MTRGDP
METAR KGDP 131451Z AUTO 06026KT M1/4SM -RA VV002 07/ A3035 RMK AO2
PK WND 06035/1402 SLP253 P0000 60000 T0072 53021 $





000
SAUS44 KMRX 130928 COR
MTRGDP
SPECI KGDP 130921Z AUTO 05038G43KT 1/4SM -RA VV002 07/ A3028 RMK AO2
PK WND 06047/0852 P0001 T0072 $





000
SAUS44 KMRX 130858 COR
MTRGDP
METAR KGDP 130851Z AUTO 05044KT 1/4SM -RA VV002 07/ A3024 RMK AO2 PK
WND 05050/0804 SLP204 P0000 60000 T0072 56003 $





000
SAUS44 KMRX 130758 COR
MTRGDP
METAR KGDP 130751Z AUTO 05046G51KT 1/2SM -RA VV002 08/ A3024 RMK AO2
PK WND 06051/0751 SLP199 P0000 T0078 $





000
SAUS44 KMRX 130658 COR
MTRGDP
METAR KGDP 130651Z AUTO 06042G49KT 1/2SM -RA VV002 08/ A3024 RMK AO2
PK WND 05053/0619 SLP198 P0000 T0078 401670078 $





000
SAUS44 KMRX 130620 COR
MTRGDP
SPECI KGDP 130613Z AUTO 06047G52KT 1 1/2SM -RA OVC003 08/ A3023 RMK
AO2 PK WND 06052/0610 VIS 3/4V4 P0000 T0078 $





000
SAUS44 KMRX 130514 COR
MTRGDP
SPECI KGDP 130507Z AUTO 06040G48KT 1/2SM -RA FG VV003 08/08 A3027
RMK AO2 PK WND 06049/0456 P0000 T00830083 $





000
SAUS44 KMRX 130505 COR
MTRGDP
SPECI KGDP 130458Z AUTO 06042G49KT 1 1/4SM -RA BR BKN003 OVC012
08/08 A3026 RMK AO2 PK WND 06049/0456 P0000 T00830078 $





000
SAUS44 KMRX 130453 COR
MTRGDP
SPECI KGDP 130446Z AUTO 06041G47KT 3/4SM -RA BR BKN003 OVC012 08/08
A3027 RMK AO2 PK WND 05047/0445 RAE0358B09 P0000 $





000
SAUS44 KMRX 130441 COR
MTRGDP
SPECI KGDP 130434Z AUTO 06042G47KT 2SM -RA BR BKN002 OVC012 08/08
A3027 RMK AO2 PK WND 06047/0434 RAE0358B09 P0000 T00830078 $





000
SAUS44 KMRX 130409 COR
MTRGDP
SPECI KGDP 130402Z AUTO 06037G42KT 1 1/2SM BR BKN002 OVC014 08/08
A3029 RMK AO2 PK WND 05042/0402 RAE0358 P0000 T00830083 $





000
SAUS44 KMRX 130258 COR
MTRGDP
METAR KGDP 130251Z AUTO 06036KT 10SM FEW006 BKN011 OVC018 09/08
A3028 RMK AO2 PK WND 05042/0230 SLP214 T00890083 51021 $





000
SAUS44 KMRX 130247 COR
MTRGDP
SPECI KGDP 130240Z AUTO 06035G41KT 10SM SCT003 OVC011 09/09 A3028
RMK AO2 PK WND 05042/0230 T00890089 $





000
SAUS44 KMRX 130240 COR
MTRGDP
SPECI KGDP 130233Z AUTO 06037G42KT 3SM BR BKN003 OVC011 09/09 A3027
RMK AO2 PK WND 05042/0230 T00890089 $





000
SAUS44 KMRX 130158 COR
MTRGDP
METAR KGDP 130151Z AUTO 06033G41KT 10SM FEW003 OVC013 09/09 A3026
RMK AO2 PK WND 05041/0144 SLP207 T00940089 $





    US Dept of Commerce
    National Oceanic and Atmospheric Administration
    National Weather Service
    1325 East West Highway
    Silver Spring, MD 20910
    Page Author: NWS Internet Services Team
Disclaimer
Information Quality
Credits
Glossary
Privacy Policy
Freedom of Information Act (FOIA)
About Us
Career Opportunities